Newburg, PA (17240)

9:54 PM EDT on April 19, 2015 (GMT -0400)
Upper Mifflin Township | | Change Station
CLOSE
Current Station
Personal Weather Station
Location: Newville, PA
Elevation: 659 ft
Nearby Weather Stations

Elev 659 ft 40.21 °N, 77.49 °W | Updated 6 seconds ago

Rain
Rain
50.7 °F
Feels Like 50.7 °F
N
1.6
Wind Variable Wind from SE
Gusts 6.0 mph

Today
High -- | Low -- °F
--% Chance of Precip.
Yesterday
High -- | Low -- °F
Precip. -- in
6:26 AM 7:52 PM
New Moon, 2% visible
Pressure 30.01 in
Visibility 8.0 miles
Clouds Overcast 2300 ft
Dew Point 43 °F
Humidity 76%
Rainfall 0.02 in
Snow Depth Not available.
UV 0.0 out of 12
Pollen 9.80 out of 12
Air Quality Not available.
Flu Activity Sporadic
METAR KRYT 200053Z AUTO 00000KT 8SM -RA OVC023 09/04 A3000 RMK AO2 SLP161 P0003 T00890044 $

More Conditions Fewer Conditions

Pressure 30.01 in
Visibility 8.0 miles
Clouds Overcast 2300 ft
Dew Point 43 °F
Humidity 76%
Rainfall 0.02 in
Snow Depth Not available.
UV 0.0 out of 12
Pollen 9.80 out of 12
Air Quality Not available.
Flu Activity Sporadic
METAR KRYT 200053Z AUTO 00000KT 8SM -RA OVC023 09/04 A3000 RMK AO2 SLP161 P0003 T00890044 $

More Conditions Fewer Conditions

10-Day Weather Forecast

Almanac

Astronomy

Apr. 19, 2015 Rise Set
Actual Time
Civil Twilight
Nautical Twilight
Astronomical Twilight
Moon
Length of Visible Light
Length of Day
Tomorrow will be .
, % of the Moon is Illuminated

Today's Extremes

State Highs State Lows

Community

WunderPhotos

Upload Photos

1,815,084 photos uploaded!

WunderBlogs® & News

Nearby

Air Quality

  Air Quality AQ Index Pollutant
Not available.

Snow Depth

Station Depth Elevation

Earthquake Activity

City Distance Mag. Time & Date
Minimum magnitude displayed is 2.5.

Coastal Water Temperatures

Place Temperature

Stations

Nearby Weather Stations

Station Location Temp. Windchill Dew Point Humidity Wind Precip. Elev Updated Type